Pagina principală
METAR-TAF:

METAR-TAF

Aeroporturi :

Majuro, Insulele Marshall

Latitudine: 07-04N, longitudine: 171-17E, elevație: 2 m

Observații meteo curente

Raportul a fost făcut în urmă cu 15 ore și 41 de minute, la 01:55 UTC
Temperatură 30°C
Umiditate 75%
Presiune 1010 hPa
Vizibilitate: 32.2 km
Nori puțini la o înălțime de 1500 picior
Nori împrăștiați la o înălțime de 5000 picior
Nori fragmentați la o înălțime de 30000 picior

METAR: PKMJ 210155Z 05011K 20SM FEW015 SCT050 BKN300 30/25 A2983 RMK LAST

Ora: 05:36 (17:36 UTC)

Prognoză

Raportul a fost făcut în urmă cu 6 ore și 16 de minute, la 11:20 UTC
Prognoză valabilă de la 21 ora 12 UTC la 22 ora 12 UTC
Vânt 10 kt de la Est/Nord-est
Vizibilitate: 10 km
Nori puțini la o înălțime de 1500 picior
Nori împrăștiați la o înălțime de 12000 picior

TAF: PKMJ 211120Z 2112/2212 07010KT P6SM FEW015 SCT120

Observații și prognoze meteo pentru peste 4.000 de aeroporturi (rapoarte METAR și TAF).

Stațiile disponibile sunt reprezentate pe hartă prin puncte galbene și roșii.

Țineți indicatorul mouse-ului pe punctul dorit pentru a vedea denumirea stației.

Apoi, faceți clic pentru a vedea observațiile și prognozele meteorologice.

Pentru a schimba harta: Pentru mărire, faceți clic pe butoanele verzi cu cruce neagră; pentru micșorare, pe butonul verde cu o liniuță; pentru hărți învecinate, pe săgețile verzi.


METAR-TAF: